createdAt,value
2022-08-14T00:01:56.662Z,19.16
2022-08-14T00:04:34.436Z,19.14
2022-08-14T00:07:10.225Z,19.11
2022-08-14T00:09:55.825Z,19.08
2022-08-14T00:12:48.065Z,19.07
2022-08-14T00:15:18.471Z,19.08
2022-08-14T00:17:47.848Z,19.06
2022-08-14T00:20:31.015Z,18.99
2022-08-14T00:23:12.595Z,19.03
2022-08-14T00:25:53.820Z,19.04
2022-08-14T00:28:32.809Z,18.95
2022-08-14T00:31:02.819Z,18.93
2022-08-14T00:33:52.330Z,18.96
2022-08-14T00:36:35.425Z,18.91
2022-08-14T00:39:09.642Z,18.89
2022-08-14T00:41:39.020Z,18.83
2022-08-14T00:44:08.158Z,18.79
2022-08-14T00:46:37.157Z,18.82
2022-08-14T00:49:04.897Z,18.83
2022-08-14T00:51:37.667Z,18.87
2022-08-14T00:54:17.102Z,18.86
2022-08-14T00:56:55.687Z,18.83
2022-08-14T00:59:25.247Z,18.80
2022-08-14T01:01:58.237Z,18.81
2022-08-14T01:04:51.618Z,18.77
2022-08-14T01:07:20.989Z,18.69
2022-08-14T01:10:01.857Z,18.62
2022-08-14T01:12:30.515Z,18.56
2022-08-14T01:14:59.460Z,18.47
2022-08-14T01:17:49.980Z,18.40
2022-08-14T01:20:40.080Z,18.37
2022-08-14T01:23:16.640Z,18.33
2022-08-14T01:25:51.544Z,18.33
2022-08-14T01:28:46.162Z,18.35
2022-08-14T01:31:12.497Z,18.44
2022-08-14T01:34:00.141Z,18.46
2022-08-14T01:36:36.709Z,18.51
2022-08-14T01:39:23.886Z,18.53
2022-08-14T01:41:58.554Z,18.54
2022-08-14T01:44:32.881Z,18.50
2022-08-14T01:47:05.794Z,18.55
2022-08-14T01:49:35.358Z,18.57
2022-08-14T01:52:03.702Z,18.61
2022-08-14T01:54:38.142Z,18.60
2022-08-14T01:57:11.613Z,18.56
2022-08-14T01:59:41.109Z,18.62
2022-08-14T02:02:19.021Z,18.60
2022-08-14T02:04:57.110Z,18.65
2022-08-14T02:07:34.330Z,18.62
2022-08-14T02:10:15.953Z,18.54
2022-08-14T02:12:54.117Z,18.53
2022-08-14T02:15:25.778Z,18.60
2022-08-14T02:17:53.330Z,18.64
2022-08-14T02:20:23.846Z,18.62
2022-08-14T02:22:55.063Z,18.66
2022-08-14T02:25:22.529Z,18.62
2022-08-14T02:28:23.107Z,18.60
2022-08-14T02:30:43.268Z,18.57
2022-08-14T02:33:12.340Z,18.52
2022-08-14T02:35:43.462Z,18.48
2022-08-14T02:38:11.919Z,18.43
2022-08-14T02:40:59.998Z,18.38
2022-08-14T02:43:37.346Z,18.30
2022-08-14T02:46:20.475Z,18.25
2022-08-14T02:49:01.918Z,18.23
2022-08-14T02:51:33.709Z,18.21
2022-08-14T02:54:03.697Z,18.17
2022-08-14T02:57:16.345Z,18.18
2022-08-14T02:59:19.117Z,18.23
2022-08-14T03:01:51.054Z,18.26
2022-08-14T03:04:21.780Z,18.32
2022-08-14T03:06:57.951Z,18.32
2022-08-14T03:09:42.358Z,18.36
2022-08-14T03:12:31.550Z,18.35
2022-08-14T03:15:03.143Z,18.30
2022-08-14T03:17:40.757Z,18.25
2022-08-14T03:20:19.079Z,18.18
2022-08-14T03:22:49.861Z,18.20
2022-08-14T03:25:17.858Z,18.17
2022-08-14T03:27:48.228Z,18.18
2022-08-14T03:30:39.224Z,18.16
2022-08-14T03:33:11.548Z,18.16
2022-08-14T03:36:07.593Z,18.11
2022-08-14T03:39:15.880Z,18.11
2022-08-14T03:41:16.914Z,18.11
2022-08-14T03:43:44.545Z,18.09
2022-08-14T03:46:38.758Z,18.06
2022-08-14T03:49:02.944Z,18.07
2022-08-14T03:51:30.053Z,18.02
2022-08-14T03:53:59.477Z,17.97
2022-08-14T03:56:30.067Z,17.91
2022-08-14T03:59:02.339Z,17.88
2022-08-14T04:01:38.919Z,17.89
2022-08-14T04:04:07.964Z,17.89
2022-08-14T04:06:47.489Z,17.87
2022-08-14T04:09:14.651Z,17.83
2022-08-14T04:11:43.747Z,17.85
2022-08-14T04:14:10.730Z,17.84
2022-08-14T04:16:47.378Z,17.81
2022-08-14T04:19:17.390Z,17.79
2022-08-14T04:22:02.104Z,17.75
2022-08-14T04:24:38.523Z,17.74
2022-08-14T04:27:09.442Z,17.79
2022-08-14T04:29:42.550Z,17.85
2022-08-14T04:33:02.566Z,17.88
2022-08-14T04:34:57.956Z,17.89
2022-08-14T04:37:45.472Z,17.92
2022-08-14T04:40:32.777Z,17.98
2022-08-14T04:43:20.795Z,17.96
2022-08-14T04:45:51.381Z,17.95
2022-08-14T04:48:39.792Z,17.96
2022-08-14T04:51:13.868Z,18.00
2022-08-14T04:53:44.530Z,18.09
2022-08-14T04:56:30.456Z,18.44
2022-08-14T04:59:09.993Z,18.71
2022-08-14T05:01:49.120Z,18.88
2022-08-14T05:04:20.795Z,19.04
2022-08-14T05:06:49.613Z,19.13
2022-08-14T05:09:20.609Z,19.16
2022-08-14T05:11:49.862Z,19.35
2022-08-14T05:14:45.837Z,19.54
2022-08-14T05:17:10.864Z,19.74
2022-08-14T05:19:45.060Z,19.92
2022-08-14T05:22:27.059Z,20.25
2022-08-14T05:24:54.178Z,20.39
2022-08-14T05:27:22.604Z,20.60
2022-08-14T05:29:56.900Z,20.74
2022-08-14T05:32:27.722Z,20.97
2022-08-14T05:34:59.549Z,21.11
2022-08-14T05:37:29.545Z,21.18
2022-08-14T05:39:58.424Z,21.33
2022-08-14T05:42:26.968Z,21.50
2022-08-14T05:44:56.174Z,21.75
2022-08-14T05:47:23.782Z,22.01
2022-08-14T05:49:51.590Z,22.12
2022-08-14T05:52:38.672Z,22.23
2022-08-14T05:55:08.575Z,22.43
2022-08-14T05:57:49.540Z,22.50
2022-08-14T06:00:28.192Z,22.59
2022-08-14T06:02:56.311Z,22.91
2022-08-14T06:05:24.188Z,23.45
2022-08-14T06:07:57.337Z,23.96
2022-08-14T06:10:24.646Z,24.26
2022-08-14T06:12:56.820Z,24.38
2022-08-14T06:15:29.610Z,24.65
2022-08-14T06:17:59.635Z,25.11
2022-08-14T06:20:28.180Z,25.42
2022-08-14T06:22:56.461Z,25.72
2022-08-14T06:25:25.037Z,25.59
2022-08-14T06:27:53.437Z,25.60
2022-08-14T06:30:24.005Z,25.44
2022-08-14T06:32:57.892Z,25.88
2022-08-14T06:35:24.708Z,25.96
2022-08-14T06:38:00.431Z,26.09
2022-08-14T06:40:36.465Z,26.14
2022-08-14T06:43:09.724Z,26.23
2022-08-14T06:45:38.920Z,26.33
2022-08-14T06:48:17.904Z,26.58
2022-08-14T06:50:46.699Z,27.04
2022-08-14T06:53:14.703Z,26.76
2022-08-14T06:55:58.022Z,27.08
2022-08-14T06:58:29.262Z,27.36
2022-08-14T07:01:23.143Z,27.36
2022-08-14T07:04:12.792Z,27.51
2022-08-14T07:06:50.370Z,27.48
2022-08-14T07:09:22.470Z,27.97
2022-08-14T07:11:51.766Z,27.91
2022-08-14T07:14:18.753Z,27.94
2022-08-14T07:16:45.651Z,27.71
2022-08-14T07:19:12.548Z,27.54
2022-08-14T07:21:39.701Z,27.50
2022-08-14T07:24:09.540Z,28.12
2022-08-14T07:26:48.417Z,28.45
2022-08-14T07:29:15.240Z,28.41
2022-08-14T07:31:44.701Z,28.36
2022-08-14T07:34:13.451Z,28.74
2022-08-14T07:37:01.489Z,29.19
2022-08-14T07:39:28.528Z,29.22
2022-08-14T07:41:55.382Z,29.46
2022-08-14T07:44:32.141Z,30.00
2022-08-14T07:47:00.695Z,30.14
2022-08-14T07:49:28.735Z,30.12
2022-08-14T07:51:56.767Z,29.21
2022-08-14T07:54:29.976Z,29.70
2022-08-14T07:57:12.312Z,29.03
2022-08-14T07:59:48.372Z,28.95
2022-08-14T08:02:19.257Z,28.95
2022-08-14T08:04:50.469Z,29.03
2022-08-14T08:07:21.799Z,28.58
2022-08-14T08:09:56.365Z,28.62
2022-08-14T08:12:30.061Z,28.42
2022-08-14T08:15:05.484Z,28.63
2022-08-14T08:17:38.762Z,29.13
2022-08-14T08:20:15.717Z,29.26
2022-08-14T08:22:48.102Z,28.45
2022-08-14T08:25:18.163Z,29.37
2022-08-14T08:28:08.147Z,28.91
2022-08-14T08:30:49.613Z,29.27
2022-08-14T08:33:18.532Z,28.67
2022-08-14T08:35:50.271Z,28.82
2022-08-14T08:39:18.490Z,29.54
2022-08-14T08:41:11.922Z,29.85
2022-08-14T08:43:46.357Z,29.62
2022-08-14T08:46:23.731Z,29.23
2022-08-14T08:51:33.371Z,29.07
2022-08-14T08:54:06.251Z,29.18
2022-08-14T08:56:39.852Z,29.23
2022-08-14T08:59:27.062Z,28.66
2022-08-14T09:02:03.976Z,29.21
2022-08-14T09:04:45.768Z,29.46
2022-08-14T09:07:30.548Z,30.15
2022-08-14T09:10:00.011Z,29.91
2022-08-14T09:12:29.826Z,30.29
2022-08-14T09:15:01.777Z,30.42
2022-08-14T09:17:28.980Z,29.28
2022-08-14T09:19:56.062Z,29.61
2022-08-14T09:22:36.101Z,29.94
2022-08-14T09:25:07.619Z,30.41
2022-08-14T09:27:36.648Z,30.73
2022-08-14T09:30:31.015Z,30.57
2022-08-14T09:33:16.107Z,31.06
2022-08-14T09:36:14.800Z,30.47
2022-08-14T09:38:58.902Z,31.27
2022-08-14T09:42:21.650Z,31.70
2022-08-14T09:45:08.373Z,29.86
2022-08-14T09:47:56.263Z,31.33
2022-08-14T09:50:51.401Z,30.48
2022-08-14T09:54:13.441Z,30.39
2022-08-14T09:56:31.876Z,30.94
2022-08-14T09:59:15.341Z,31.30
2022-08-14T10:01:46.109Z,31.52
2022-08-14T10:04:33.704Z,32.03
2022-08-14T10:07:03.747Z,32.41
2022-08-14T10:09:33.486Z,32.38
2022-08-14T10:12:04.287Z,32.36
2022-08-14T10:14:35.943Z,31.23
2022-08-14T10:17:08.440Z,31.19
2022-08-14T10:19:46.892Z,30.60
2022-08-14T10:23:21.944Z,30.54
2022-08-14T10:25:17.412Z,30.29
2022-08-14T10:27:50.139Z,29.97
2022-08-14T10:30:25.542Z,30.93
2022-08-14T10:32:55.523Z,31.10
2022-08-14T10:35:30.876Z,31.88
2022-08-14T10:38:00.863Z,31.51
2022-08-14T10:40:37.696Z,31.26
2022-08-14T10:43:23.957Z,31.73
2022-08-14T10:47:37.388Z,31.41
2022-08-14T10:49:04.469Z,30.82
2022-08-14T10:51:39.689Z,32.03
2022-08-14T10:54:26.060Z,33.04
2022-08-14T10:57:22.448Z,32.42
2022-08-14T10:59:59.741Z,32.53
2022-08-14T11:02:45.067Z,33.28
2022-08-14T11:05:19.399Z,33.02
2022-08-14T11:07:56.514Z,33.02
2022-08-14T11:10:48.468Z,32.70
2022-08-14T11:13:30.066Z,31.87
2022-08-14T11:16:02.005Z,32.83
2022-08-14T11:18:35.788Z,32.33
2022-08-14T11:21:06.511Z,31.94
2022-08-14T11:23:38.217Z,32.44
2022-08-14T11:26:08.749Z,31.99
2022-08-14T11:28:47.032Z,32.36
2022-08-14T11:31:20.205Z,32.95
2022-08-14T11:33:57.811Z,33.35
2022-08-14T11:36:56.900Z,34.06
2022-08-14T11:39:35.030Z,33.77
2022-08-14T11:42:57.848Z,32.35
2022-08-14T11:45:03.397Z,32.37
2022-08-14T11:47:43.909Z,32.50
2022-08-14T11:50:36.736Z,32.41
2022-08-14T11:53:07.126Z,33.11
2022-08-14T11:55:38.462Z,33.69
2022-08-14T11:58:11.346Z,33.50
2022-08-14T12:00:53.982Z,34.83
2022-08-14T12:03:37.199Z,33.66
2022-08-14T12:06:29.489Z,34.08
2022-08-14T12:09:00.077Z,34.98
2022-08-14T12:11:43.485Z,33.72
2022-08-14T12:14:13.282Z,33.93
2022-08-14T12:17:12.785Z,34.15
2022-08-14T12:19:51.255Z,34.74
2022-08-14T12:22:43.129Z,32.65
2022-08-14T12:25:14.113Z,33.36
2022-08-14T12:27:52.504Z,33.29
2022-08-14T12:30:43.161Z,34.37
2022-08-14T12:33:30.912Z,34.86
2022-08-14T12:36:04.421Z,31.21
2022-08-14T12:38:35.863Z,30.39
2022-08-14T12:41:06.436Z,31.90
2022-08-14T12:43:46.158Z,31.32
2022-08-14T12:46:28.322Z,31.09
2022-08-14T12:49:03.909Z,32.53
2022-08-14T12:51:31.382Z,32.37
2022-08-14T12:54:00.040Z,34.18
2022-08-14T12:56:32.914Z,34.68
2022-08-14T12:59:03.248Z,35.69
2022-08-14T13:01:59.247Z,33.30
2022-08-14T13:04:21.630Z,34.23
2022-08-14T13:06:51.462Z,34.33
2022-08-14T13:09:20.137Z,31.43
2022-08-14T13:11:59.079Z,32.48
2022-08-14T13:14:43.097Z,34.80
2022-08-14T13:17:11.654Z,34.29
2022-08-14T13:19:40.592Z,35.19
2022-08-14T13:22:09.808Z,33.60
2022-08-14T13:24:39.742Z,33.02
2022-08-14T13:27:10.002Z,32.61
2022-08-14T13:29:46.533Z,32.73
2022-08-14T13:32:14.308Z,30.83
2022-08-14T13:34:43.781Z,30.89
2022-08-14T13:37:14.641Z,31.86
2022-08-14T13:39:46.926Z,34.19
2022-08-14T13:42:23.858Z,33.49
2022-08-14T13:44:53.207Z,31.33
2022-08-14T13:47:21.659Z,29.95
2022-08-14T13:49:57.921Z,30.01
2022-08-14T13:52:52.518Z,31.62
2022-08-14T13:55:16.414Z,34.47
2022-08-14T13:57:49.768Z,33.19
2022-08-14T14:00:32.426Z,31.27
2022-08-14T14:03:00.428Z,30.37
2022-08-14T14:05:52.268Z,31.41
2022-08-14T14:08:18.590Z,32.38
2022-08-14T14:11:03.380Z,32.92
2022-08-14T14:13:31.839Z,33.80
2022-08-14T14:16:02.812Z,35.22
2022-08-14T14:18:34.794Z,34.40
2022-08-14T14:21:03.413Z,35.18
2022-08-14T14:23:32.542Z,34.45
2022-08-14T14:25:59.991Z,35.93
2022-08-14T14:28:32.218Z,36.22
2022-08-14T14:31:06.746Z,34.69
2022-08-14T14:33:47.030Z,34.65
2022-08-14T14:36:25.028Z,33.46
2022-08-14T14:39:04.699Z,34.06
2022-08-14T14:41:38.111Z,34.60
2022-08-14T14:44:16.096Z,35.81
2022-08-14T14:46:51.012Z,36.98
2022-08-14T14:49:22.238Z,35.47
2022-08-14T14:51:58.916Z,31.99
2022-08-14T14:54:30.910Z,32.32
2022-08-14T14:57:00.568Z,33.21
2022-08-14T14:59:33.472Z,35.39
2022-08-14T15:02:09.233Z,35.14
2022-08-14T15:04:38.972Z,33.86
2022-08-14T15:07:12.350Z,35.32
2022-08-14T15:09:41.144Z,34.65
2022-08-14T15:12:34.181Z,33.89
2022-08-14T15:14:58.049Z,35.07
2022-08-14T15:17:40.838Z,34.08
2022-08-14T15:20:11.369Z,35.87
2022-08-14T15:22:50.925Z,35.39
2022-08-14T15:25:18.834Z,36.83
2022-08-14T15:27:49.980Z,35.40
2022-08-14T15:30:23.703Z,33.67
2022-08-14T15:32:53.137Z,32.52
2022-08-14T15:35:22.731Z,32.84
2022-08-14T15:37:55.632Z,33.00
2022-08-14T15:40:23.647Z,33.35
2022-08-14T15:42:51.038Z,34.98
2022-08-14T15:45:18.977Z,34.27
2022-08-14T15:47:45.771Z,32.84
2022-08-14T15:50:13.066Z,32.34
2022-08-14T15:52:43.120Z,31.72
2022-08-14T15:55:14.914Z,30.52
2022-08-14T15:58:01.812Z,30.14
2022-08-14T16:00:52.752Z,30.26
2022-08-14T16:03:27.401Z,29.69
2022-08-14T16:06:05.676Z,29.68
2022-08-14T16:08:33.505Z,29.56
2022-08-14T16:11:04.170Z,29.69
2022-08-14T16:13:44.620Z,29.76
2022-08-14T16:16:49.391Z,30.06
2022-08-14T16:19:10.064Z,30.09
2022-08-14T16:21:40.524Z,30.32
2022-08-14T16:24:26.848Z,30.35
2022-08-14T16:27:00.843Z,30.63
2022-08-14T16:29:31.274Z,30.60
2022-08-14T16:32:01.729Z,30.49
2022-08-14T16:34:47.320Z,30.21
2022-08-14T16:37:18.342Z,30.13
2022-08-14T16:39:48.624Z,29.92
2022-08-14T16:43:02.843Z,29.39
2022-08-14T16:45:04.118Z,29.16
2022-08-14T16:47:34.945Z,29.04
2022-08-14T16:50:08.427Z,28.93
2022-08-14T16:52:44.703Z,28.94
2022-08-14T16:55:13.984Z,29.01
2022-08-14T16:57:54.509Z,29.13
2022-08-14T17:00:32.752Z,28.87
2022-08-14T17:03:08.622Z,28.87
2022-08-14T17:05:43.406Z,28.77
2022-08-14T17:08:32.562Z,28.77
2022-08-14T17:11:11.124Z,28.83
2022-08-14T17:13:59.168Z,28.59
2022-08-14T17:16:37.178Z,28.49
2022-08-14T17:19:09.974Z,28.47
2022-08-14T17:21:41.659Z,28.43
2022-08-14T17:24:56.043Z,28.43
2022-08-14T17:27:05.224Z,28.37
2022-08-14T17:29:56.152Z,28.22
2022-08-14T17:32:29.819Z,28.10
2022-08-14T17:35:09.992Z,28.02
2022-08-14T17:37:45.162Z,27.95
2022-08-14T17:40:16.052Z,27.88
2022-08-14T17:42:51.809Z,27.77
2022-08-14T17:45:43.023Z,27.67
2022-08-14T17:49:09.952Z,27.67
2022-08-14T17:51:24.157Z,27.55
2022-08-14T17:54:02.322Z,27.48
2022-08-14T17:56:32.303Z,27.37
2022-08-14T17:59:05.946Z,27.31
2022-08-14T18:01:37.967Z,27.14
2022-08-14T18:04:24.524Z,27.10
2022-08-14T18:07:08.786Z,27.08
2022-08-14T18:09:57.366Z,26.99
2022-08-14T18:12:36.872Z,26.87
2022-08-14T18:15:16.441Z,26.83
2022-08-14T18:17:54.107Z,26.68
2022-08-14T18:21:41.266Z,26.18
2022-08-14T18:23:13.607Z,25.71
2022-08-14T18:25:50.408Z,25.44
2022-08-14T18:28:40.620Z,25.26
2022-08-14T18:31:20.811Z,25.11
2022-08-14T18:33:59.746Z,24.98
2022-08-14T18:36:57.088Z,24.86
2022-08-14T18:40:01.957Z,24.76
2022-08-14T18:42:24.411Z,24.65
2022-08-14T18:45:00.956Z,24.56
2022-08-14T18:47:32.618Z,24.45
2022-08-14T18:50:27.617Z,24.38
2022-08-14T18:53:07.601Z,24.29
2022-08-14T18:55:35.791Z,24.18
2022-08-14T18:58:27.792Z,24.15
2022-08-14T19:00:58.738Z,24.07
2022-08-14T19:03:36.591Z,24.00
2022-08-14T19:06:07.202Z,24.00
2022-08-14T19:08:45.464Z,23.96
2022-08-14T19:11:37.584Z,23.85
2022-08-14T19:14:06.049Z,23.83
2022-08-14T19:16:35.696Z,23.82
2022-08-14T19:19:08.775Z,23.72
2022-08-14T19:21:36.669Z,23.59
2022-08-14T19:24:27.702Z,23.49
2022-08-14T19:27:24.279Z,23.48
2022-08-14T19:30:19.690Z,23.43
2022-08-14T19:32:50.702Z,23.36
2022-08-14T19:35:54.945Z,23.24
2022-08-14T19:38:48.174Z,23.22
2022-08-14T19:41:17.079Z,23.23
2022-08-14T19:43:55.838Z,23.22
2022-08-14T19:46:37.816Z,23.20
2022-08-14T19:49:07.065Z,23.16
2022-08-14T19:51:48.940Z,23.04
2022-08-14T19:54:16.209Z,22.93
2022-08-14T19:56:45.079Z,22.88
2022-08-14T19:59:18.898Z,22.83
2022-08-14T20:01:51.238Z,22.79
2022-08-14T20:04:45.086Z,22.82
2022-08-14T20:07:27.210Z,22.83
2022-08-14T20:11:08.262Z,22.85
2022-08-14T20:13:14.540Z,22.85
2022-08-14T20:15:50.754Z,22.82
2022-08-14T20:18:48.990Z,22.77
2022-08-14T20:21:13.683Z,22.73
2022-08-14T20:23:41.861Z,22.64
2022-08-14T20:26:30.851Z,22.53
2022-08-14T20:29:05.088Z,22.41
2022-08-14T20:31:36.378Z,22.36
2022-08-14T20:34:24.337Z,22.35
2022-08-14T20:37:04.716Z,22.29
2022-08-14T20:39:54.649Z,22.25
2022-08-14T20:42:43.564Z,22.19
2022-08-14T20:45:17.975Z,22.20
2022-08-14T20:47:50.655Z,22.17
2022-08-14T20:50:28.964Z,22.19
2022-08-14T20:52:58.230Z,22.23
2022-08-14T20:55:32.381Z,22.27
2022-08-14T20:58:09.997Z,22.35
2022-08-14T21:01:11.354Z,22.32
2022-08-14T21:03:56.400Z,22.30
2022-08-14T21:07:22.790Z,22.25
2022-08-14T21:10:05.202Z,22.28
2022-08-14T21:12:34.785Z,22.34
2022-08-14T21:14:58.510Z,22.33
2022-08-14T21:17:25.480Z,22.33
2022-08-14T21:19:53.903Z,22.30
2022-08-14T21:22:21.215Z,22.29
2022-08-14T21:24:48.415Z,22.32
2022-08-14T21:27:20.288Z,22.26
2022-08-14T21:29:55.382Z,22.18
2022-08-14T21:32:47.219Z,22.14
2022-08-14T21:35:24.392Z,22.02
2022-08-14T21:37:52.412Z,22.02
2022-08-14T21:40:40.753Z,22.08
2022-08-14T21:43:17.167Z,22.06
2022-08-14T21:45:53.646Z,22.09
2022-08-14T21:48:29.868Z,22.02
2022-08-14T21:51:01.746Z,22.02
2022-08-14T21:53:58.380Z,21.94
2022-08-14T21:56:37.230Z,21.85
2022-08-14T21:59:09.692Z,21.81
2022-08-14T22:02:01.218Z,21.75
2022-08-14T22:04:33.780Z,21.73
2022-08-14T22:07:07.343Z,21.71
2022-08-14T22:09:36.576Z,21.66
2022-08-14T22:12:06.781Z,21.67
2022-08-14T22:14:43.767Z,21.63
2022-08-14T22:17:16.299Z,21.61
2022-08-14T22:19:54.994Z,21.57
2022-08-14T22:22:26.004Z,21.52
2022-08-14T22:25:00.413Z,21.50
2022-08-14T22:27:32.392Z,21.49
2022-08-14T22:30:01.085Z,21.50
2022-08-14T22:32:56.432Z,21.49
2022-08-14T22:35:17.072Z,21.52
2022-08-14T22:37:44.719Z,21.53
2022-08-14T22:40:43.844Z,21.53
2022-08-14T22:43:07.985Z,21.56
2022-08-14T22:45:37.699Z,21.59
2022-08-14T22:48:10.728Z,21.57
2022-08-14T22:50:48.990Z,21.59
2022-08-14T22:53:16.021Z,21.56
2022-08-14T22:55:43.418Z,21.57
2022-08-14T22:58:11.429Z,21.59
2022-08-14T23:00:45.599Z,21.58
2022-08-14T23:03:17.184Z,21.54
2022-08-14T23:05:52.661Z,21.54
2022-08-14T23:08:59.425Z,21.49
2022-08-14T23:11:10.046Z,21.49
2022-08-14T23:13:39.236Z,21.44
2022-08-14T23:16:08.394Z,21.42
2022-08-14T23:18:38.872Z,21.38
2022-08-14T23:21:10.415Z,21.33
2022-08-14T23:23:41.472Z,21.34
2022-08-14T23:26:47.266Z,21.29
2022-08-14T23:28:58.352Z,21.25
2022-08-14T23:31:36.107Z,21.23
2022-08-14T23:34:07.105Z,21.20
2022-08-14T23:36:37.939Z,21.16
2022-08-14T23:39:24.674Z,21.08
2022-08-14T23:42:04.225Z,21.03
2022-08-14T23:44:34.970Z,20.98
2022-08-14T23:47:12.251Z,20.91
2022-08-14T23:50:03.863Z,20.88
2022-08-14T23:53:04.158Z,20.82
2022-08-14T23:55:29.557Z,20.82
2022-08-14T23:57:57.812Z,20.80
